sensor_id;sensor_type;location;lat;lon;timestamp;pressure;altitude;pressure_sealevel;temperature;humidity
69402;BME280;56589;51.992;5.924;2023-04-23T00:01:12;100246.97;;;8.60;81.53
69402;BME280;56589;51.992;5.924;2023-04-23T00:03:40;100254.72;;;8.62;81.83
69402;BME280;56589;51.992;5.924;2023-04-23T00:06:08;100251.25;;;8.61;81.90
69402;BME280;56589;51.992;5.924;2023-04-23T00:08:38;100249.69;;;8.59;81.72
69402;BME280;56589;51.992;5.924;2023-04-23T00:11:05;100249.69;;;8.59;81.49
69402;BME280;56589;51.992;5.924;2023-04-23T00:13:32;100246.31;;;8.57;81.51
69402;BME280;56589;51.992;5.924;2023-04-23T00:15:59;100250.81;;;8.55;81.70
69402;BME280;56589;51.992;5.924;2023-04-23T00:18:25;100250.09;;;8.53;81.82
69402;BME280;56589;51.992;5.924;2023-04-23T00:20:51;100244.09;;;8.51;81.76
69402;BME280;56589;51.992;5.924;2023-04-23T00:23:17;100239.06;;;8.48;81.70
69402;BME280;56589;51.992;5.924;2023-04-23T00:25:45;100226.94;;;8.47;81.74
69402;BME280;56589;51.992;5.924;2023-04-23T00:28:11;100235.81;;;8.44;81.93
69402;BME280;56589;51.992;5.924;2023-04-23T00:30:37;100227.13;;;8.43;82.00
69402;BME280;56589;51.992;5.924;2023-04-23T00:33:03;100233.41;;;8.41;81.96
69402;BME280;56589;51.992;5.924;2023-04-23T00:35:29;100232.56;;;8.40;82.24
69402;BME280;56589;51.992;5.924;2023-04-23T00:37:55;100231.72;;;8.40;81.72
69402;BME280;56589;51.992;5.924;2023-04-23T00:40:21;100229.19;;;8.38;82.10
69402;BME280;56589;51.992;5.924;2023-04-23T00:42:50;100230.97;;;8.38;81.83
69402;BME280;56589;51.992;5.924;2023-04-23T00:45:17;100220.50;;;8.38;82.02
69402;BME280;56589;51.992;5.924;2023-04-23T00:47:44;100225.00;;;8.36;82.04
69402;BME280;56589;51.992;5.924;2023-04-23T00:50:10;100215.47;;;8.35;82.00
69402;BME280;56589;51.992;5.924;2023-04-23T00:52:36;100216.41;;;8.34;81.70
69402;BME280;56589;51.992;5.924;2023-04-23T00:55:02;100220.06;;;8.31;82.01
69402;BME280;56589;51.992;5.924;2023-04-23T00:57:28;100212.31;;;8.30;81.62
69402;BME280;56589;51.992;5.924;2023-04-23T00:59:57;100217.53;;;8.30;81.75
69402;BME280;56589;51.992;5.924;2023-04-23T01:02:23;100209.03;;;8.26;81.57
69402;BME280;56589;51.992;5.924;2023-04-23T01:04:51;100212.50;;;8.27;81.64
69402;BME280;56589;51.992;5.924;2023-04-23T01:07:17;100202.25;;;8.24;81.32
69402;BME280;56589;51.992;5.924;2023-04-23T01:09:43;100208.41;;;8.23;81.60
69402;BME280;56589;51.992;5.924;2023-04-23T01:12:09;100202.34;;;8.22;81.64
69402;BME280;56589;51.992;5.924;2023-04-23T01:14:36;100204.31;;;8.19;81.51
69402;BME280;56589;51.992;5.924;2023-04-23T01:17:05;100207.13;;;8.15;81.53
69402;BME280;56589;51.992;5.924;2023-04-23T01:19:31;100202.91;;;8.13;81.43
69402;BME280;56589;51.992;5.924;2023-04-23T01:21:57;100197.91;;;8.10;81.26
69402;BME280;56589;51.992;5.924;2023-04-23T01:24:28;100192.00;;;8.06;81.24
69402;BME280;56589;51.992;5.924;2023-04-23T01:26:55;100183.53;;;8.03;81.66
69402;BME280;56589;51.992;5.924;2023-04-23T01:29:21;100189.59;;;8.03;81.89
69402;BME280;56589;51.992;5.924;2023-04-23T01:31:47;100185.22;;;8.04;82.16
69402;BME280;56589;51.992;5.924;2023-04-23T01:34:14;100184.28;;;8.05;82.34
69402;BME280;56589;51.992;5.924;2023-04-23T01:36:42;100183.16;;;8.09;81.98
69402;BME280;56589;51.992;5.924;2023-04-23T01:39:08;100183.22;;;8.07;82.38
69402;BME280;56589;51.992;5.924;2023-04-23T01:41:38;100177.09;;;8.08;82.23
69402;BME280;56589;51.992;5.924;2023-04-23T01:44:05;100169.13;;;8.10;82.23
69402;BME280;56589;51.992;5.924;2023-04-23T01:46:31;100173.41;;;8.11;82.34
69402;BME280;56589;51.992;5.924;2023-04-23T01:48:57;100183.03;;;8.10;81.86
69402;BME280;56589;51.992;5.924;2023-04-23T01:51:24;100177.09;;;8.08;82.40
69402;BME280;56589;51.992;5.924;2023-04-23T01:53:50;100169.25;;;8.08;82.00
69402;BME280;56589;51.992;5.924;2023-04-23T01:56:18;100166.69;;;8.07;82.44
69402;BME280;56589;51.992;5.924;2023-04-23T01:58:49;100170.47;;;8.03;82.23
69402;BME280;56589;51.992;5.924;2023-04-23T02:01:15;100159.34;;;7.99;82.46
69402;BME280;56589;51.992;5.924;2023-04-23T02:03:41;100162.25;;;7.95;82.04
69402;BME280;56589;51.992;5.924;2023-04-23T02:06:07;100168.69;;;7.89;82.32
69402;BME280;56589;51.992;5.924;2023-04-23T02:08:34;100156.00;;;7.83;82.44
69402;BME280;56589;51.992;5.924;2023-04-23T02:11:00;100154.56;;;7.79;82.71
69402;BME280;56589;51.992;5.924;2023-04-23T02:13:26;100157.44;;;7.74;82.25
69402;BME280;56589;51.992;5.924;2023-04-23T02:15:54;100148.22;;;7.69;82.75
69402;BME280;56589;51.992;5.924;2023-04-23T02:18:20;100151.03;;;7.66;82.65
69402;BME280;56589;51.992;5.924;2023-04-23T02:20:46;100152.88;;;7.64;82.75
69402;BME280;56589;51.992;5.924;2023-04-23T02:23:12;100155.38;;;7.65;83.18
69402;BME280;56589;51.992;5.924;2023-04-23T02:25:38;100154.16;;;7.71;83.13
69402;BME280;56589;51.992;5.924;2023-04-23T02:28:03;100157.44;;;7.74;83.60
69402;BME280;56589;51.992;5.924;2023-04-23T02:30:29;100148.38;;;7.80;83.61
69402;BME280;56589;51.992;5.924;2023-04-23T02:32:58;100158.63;;;7.83;83.14
69402;BME280;56589;51.992;5.924;2023-04-23T02:35:23;100155.84;;;7.86;83.60
69402;BME280;56589;51.992;5.924;2023-04-23T02:37:49;100159.94;;;7.90;83.34
69402;BME280;56589;51.992;5.924;2023-04-23T02:40:15;100151.91;;;7.93;83.30
69402;BME280;56589;51.992;5.924;2023-04-23T02:42:41;100156.84;;;7.98;83.57
69402;BME280;56589;51.992;5.924;2023-04-23T02:45:08;100154.00;;;8.01;83.16
69402;BME280;56589;51.992;5.924;2023-04-23T02:47:34;100151.50;;;7.99;83.58
69402;BME280;56589;51.992;5.924;2023-04-23T02:50:03;100148.16;;;7.97;83.35
69402;BME280;56589;51.992;5.924;2023-04-23T02:52:29;100145.63;;;7.96;83.25
69402;BME280;56589;51.992;5.924;2023-04-23T02:54:55;100138.94;;;7.92;83.05
69402;BME280;56589;51.992;5.924;2023-04-23T02:57:21;100144.25;;;7.90;83.57
69402;BME280;56589;51.992;5.924;2023-04-23T02:59:47;100148.63;;;7.89;83.14
69402;BME280;56589;51.992;5.924;2023-04-23T03:02:13;100153.00;;;7.89;83.84
69402;BME280;56589;51.992;5.924;2023-04-23T03:04:39;100141.66;;;7.90;83.71
69402;BME280;56589;51.992;5.924;2023-04-23T03:07:07;100142.28;;;7.94;83.86
69402;BME280;56589;51.992;5.924;2023-04-23T03:09:33;100136.22;;;7.93;83.65
69402;BME280;56589;51.992;5.924;2023-04-23T03:11:59;100136.50;;;7.88;83.75
69402;BME280;56589;51.992;5.924;2023-04-23T03:14:25;100143.72;;;7.85;83.83
69402;BME280;56589;51.992;5.924;2023-04-23T03:16:50;100131.59;;;7.84;83.58
69402;BME280;56589;51.992;5.924;2023-04-23T03:19:16;100128.97;;;7.84;83.51
69402;BME280;56589;51.992;5.924;2023-04-23T03:21:42;100127.25;;;7.83;83.32
69402;BME280;56589;51.992;5.924;2023-04-23T03:24:12;100129.88;;;7.83;83.12
69402;BME280;56589;51.992;5.924;2023-04-23T03:26:38;100135.31;;;7.80;83.65
69402;BME280;56589;51.992;5.924;2023-04-23T03:29:03;100135.22;;;7.81;83.16
69402;BME280;56589;51.992;5.924;2023-04-23T03:31:29;100144.00;;;7.80;83.43
69402;BME280;56589;51.992;5.924;2023-04-23T03:33:55;100132.69;;;7.80;83.41
69402;BME280;56589;51.992;5.924;2023-04-23T03:36:21;100130.19;;;7.78;83.67
69402;BME280;56589;51.992;5.924;2023-04-23T03:38:47;100130.19;;;7.78;83.58
69402;BME280;56589;51.992;5.924;2023-04-23T03:41:15;100132.69;;;7.80;83.49
69402;BME280;56589;51.992;5.924;2023-04-23T03:43:41;100128.41;;;7.79;83.40
69402;BME280;56589;51.992;5.924;2023-04-23T03:46:07;100121.50;;;7.78;83.62
69402;BME280;56589;51.992;5.924;2023-04-23T03:48:32;100123.19;;;7.79;83.74
69402;BME280;56589;51.992;5.924;2023-04-23T03:50:58;100122.44;;;7.77;83.50
69402;BME280;56589;51.992;5.924;2023-04-23T03:53:24;100121.69;;;7.75;83.93
69402;BME280;56589;51.992;5.924;2023-04-23T03:55:50;100118.25;;;7.74;83.59
69402;BME280;56589;51.992;5.924;2023-04-23T03:58:18;100122.53;;;7.75;83.89
69402;BME280;56589;51.992;5.924;2023-04-23T04:00:44;100118.13;;;7.76;83.68
69402;BME280;56589;51.992;5.924;2023-04-23T04:03:10;100113.03;;;7.74;83.74
69402;BME280;56589;51.992;5.924;2023-04-23T04:05:36;100102.56;;;7.74;83.91
69402;BME280;56589;51.992;5.924;2023-04-23T04:08:02;100108.72;;;7.73;83.95
69402;BME280;56589;51.992;5.924;2023-04-23T04:10:28;100104.63;;;7.69;84.08
69402;BME280;56589;51.992;5.924;2023-04-23T04:12:54;100105.56;;;7.68;83.82
69402;BME280;56589;51.992;5.924;2023-04-23T04:15:22;100098.66;;;7.67;84.27
69402;BME280;56589;51.992;5.924;2023-04-23T04:17:48;100111.84;;;7.66;84.37
69402;BME280;56589;51.992;5.924;2023-04-23T04:20:14;100123.84;;;7.68;84.25
69402;BME280;56589;51.992;5.924;2023-04-23T04:22:40;100117.59;;;7.71;84.22
69402;BME280;56589;51.992;5.924;2023-04-23T04:25:07;100116.56;;;7.73;84.23
69402;BME280;56589;51.992;5.924;2023-04-23T04:27:32;100114.41;;;7.80;84.22
69402;BME280;56589;51.992;5.924;2023-04-23T04:29:58;100114.84;;;7.86;84.05
69402;BME280;56589;51.992;5.924;2023-04-23T04:32:27;100117.19;;;7.91;84.57
69402;BME280;56589;51.992;5.924;2023-04-23T04:34:53;100112.41;;;7.98;84.16
69402;BME280;56589;51.992;5.924;2023-04-23T04:37:19;100119.97;;;8.02;83.85
69402;BME280;56589;51.992;5.924;2023-04-23T04:39:45;100108.56;;;8.03;83.67
69402;BME280;56589;51.992;5.924;2023-04-23T04:42:11;100120.69;;;8.04;83.95
69402;BME280;56589;51.992;5.924;2023-04-23T04:44:37;100122.34;;;8.05;83.89
69402;BME280;56589;51.992;5.924;2023-04-23T04:47:03;100116.19;;;8.06;83.93
69402;BME280;56589;51.992;5.924;2023-04-23T04:49:32;100116.00;;;8.09;83.52
69402;BME280;56589;51.992;5.924;2023-04-23T04:51:58;100115.91;;;8.11;83.81
69402;BME280;56589;51.992;5.924;2023-04-23T04:54:24;100123.47;;;8.15;83.78
69402;BME280;56589;51.992;5.924;2023-04-23T04:56:50;100121.28;;;8.22;84.31
69402;BME280;56589;51.992;5.924;2023-04-23T04:59:16;100118.81;;;8.33;84.10
69402;BME280;56589;51.992;5.924;2023-04-23T05:01:42;100124.06;;;8.46;84.22
69402;BME280;56589;51.992;5.924;2023-04-23T05:04:08;100124.19;;;8.57;83.93
69402;BME280;56589;51.992;5.924;2023-04-23T05:06:37;100119.19;;;8.67;84.08
69402;BME280;56589;51.992;5.924;2023-04-23T05:09:03;100113.25;;;8.78;84.35
69402;BME280;56589;51.992;5.924;2023-04-23T05:11:28;100115.63;;;8.93;84.24
69402;BME280;56589;51.992;5.924;2023-04-23T05:13:55;100112.94;;;9.08;84.04
69402;BME280;56589;51.992;5.924;2023-04-23T05:16:21;100123.06;;;9.12;83.32
69402;BME280;56589;51.992;5.924;2023-04-23T05:18:47;100115.03;;;9.15;83.29
69402;BME280;56589;51.992;5.924;2023-04-23T05:21:13;100116.56;;;9.18;83.22
69402;BME280;56589;51.992;5.924;2023-04-23T05:23:42;100121.81;;;9.18;82.90
69402;BME280;56589;51.992;5.924;2023-04-23T05:26:08;100116.50;;;9.19;82.54
69402;BME280;56589;51.992;5.924;2023-04-23T05:28:34;100113.13;;;9.17;82.33
69402;BME280;56589;51.992;5.924;2023-04-23T05:31:00;100110.72;;;9.14;82.68
69402;BME280;56589;51.992;5.924;2023-04-23T05:33:26;100111.75;;;9.12;82.31
69402;BME280;56589;51.992;5.924;2023-04-23T05:35:52;100109.97;;;9.12;82.53
69402;BME280;56589;51.992;5.924;2023-04-23T05:38:18;100106.53;;;9.12;82.39
69402;BME280;56589;51.992;5.924;2023-04-23T05:40:46;100112.81;;;9.09;82.86
69402;BME280;56589;51.992;5.924;2023-04-23T05:43:12;100122.34;;;9.10;82.72
69402;BME280;56589;51.992;5.924;2023-04-23T05:45:38;100128.31;;;9.12;82.63
69402;BME280;56589;51.992;5.924;2023-04-23T05:48:04;100122.88;;;9.15;82.89
69402;BME280;56589;51.992;5.924;2023-04-23T05:50:29;100124.56;;;9.16;82.47
69402;BME280;56589;51.992;5.924;2023-04-23T05:52:55;100120.91;;;9.19;82.75
69402;BME280;56589;51.992;5.924;2023-04-23T05:55:21;100123.22;;;9.23;83.09
69402;BME280;56589;51.992;5.924;2023-04-23T05:57:50;100117.66;;;9.41;83.94
69402;BME280;56589;51.992;5.924;2023-04-23T06:00:16;100124.00;;;9.62;83.62
69402;BME280;56589;51.992;5.924;2023-04-23T06:02:42;100129.94;;;9.77;83.27
69402;BME280;56589;51.992;5.924;2023-04-23T06:05:08;100130.31;;;10.20;85.51
69402;BME280;56589;51.992;5.924;2023-04-23T06:07:34;100115.47;;;10.78;84.54
69402;BME280;56589;51.992;5.924;2023-04-23T06:10:00;100120.34;;;11.18;84.03
69402;BME280;56589;51.992;5.924;2023-04-23T06:12:27;100122.88;;;11.64;84.02
69402;BME280;56589;51.992;5.924;2023-04-23T06:14:56;100121.31;;;12.28;84.92
69402;BME280;56589;51.992;5.924;2023-04-23T06:17:22;100116.13;;;13.00;83.90
69402;BME280;56589;51.992;5.924;2023-04-23T06:19:48;100109.66;;;13.75;82.56
69402;BME280;56589;51.992;5.924;2023-04-23T06:22:14;100112.78;;;14.38;80.82
69402;BME280;56589;51.992;5.924;2023-04-23T06:24:40;100115.13;;;14.99;79.71
69402;BME280;56589;51.992;5.924;2023-04-23T06:27:05;100113.94;;;15.58;77.61
69402;BME280;56589;51.992;5.924;2023-04-23T06:29:33;100116.06;;;16.18;75.41
69402;BME280;56589;51.992;5.924;2023-04-23T06:32:02;100110.50;;;16.75;73.59
69402;BME280;56589;51.992;5.924;2023-04-23T06:34:28;100115.94;;;17.25;72.30
69402;BME280;56589;51.992;5.924;2023-04-23T06:36:54;100116.66;;;17.69;70.75
69402;BME280;56589;51.992;5.924;2023-04-23T06:39:20;100114.59;;;18.05;68.98
69402;BME280;56589;51.992;5.924;2023-04-23T06:41:46;100112.81;;;18.30;66.96
69402;BME280;56589;51.992;5.924;2023-04-23T06:44:12;100118.69;;;18.58;66.23
69402;BME280;56589;51.992;5.924;2023-04-23T06:46:38;100105.81;;;18.95;65.12
69402;BME280;56589;51.992;5.924;2023-04-23T06:49:06;100098.94;;;19.25;63.82
69402;BME280;56589;51.992;5.924;2023-04-23T06:51:32;100099.19;;;19.54;62.74
69402;BME280;56589;51.992;5.924;2023-04-23T06:53:59;100094.25;;;19.82;61.51
69402;BME280;56589;51.992;5.924;2023-04-23T06:56:25;100096.06;;;20.13;60.69
69402;BME280;56589;51.992;5.924;2023-04-23T06:58:50;100093.13;;;20.31;59.46
69402;BME280;56589;51.992;5.924;2023-04-23T07:01:16;100091.50;;;20.22;57.59
69402;BME280;56589;51.992;5.924;2023-04-23T07:03:43;100088.78;;;19.76;57.01
69402;BME280;56589;51.992;5.924;2023-04-23T07:06:11;100089.50;;;19.14;56.69
69402;BME280;56589;51.992;5.924;2023-04-23T07:08:37;100091.03;;;18.51;58.02
69402;BME280;56589;51.992;5.924;2023-04-23T07:11:03;100094.53;;;18.03;58.61
69402;BME280;56589;51.992;5.924;2023-04-23T07:13:29;100091.38;;;17.65;59.12
69402;BME280;56589;51.992;5.924;2023-04-23T07:15:55;100079.81;;;17.32;59.79
69402;BME280;56589;51.992;5.924;2023-04-23T07:18:21;100074.41;;;17.08;59.58
69402;BME280;56589;51.992;5.924;2023-04-23T07:20:46;100075.06;;;16.84;60.27
69402;BME280;56589;51.992;5.924;2023-04-23T07:23:15;100069.41;;;16.61;60.85
69402;BME280;56589;51.992;5.924;2023-04-23T07:25:41;100071.59;;;16.39;61.13
69402;BME280;56589;51.992;5.924;2023-04-23T07:28:06;100059.72;;;16.26;61.45
69402;BME280;56589;51.992;5.924;2023-04-23T07:30:32;100066.22;;;16.13;61.43
69402;BME280;56589;51.992;5.924;2023-04-23T07:32:58;100066.63;;;16.01;61.76
69402;BME280;56589;51.992;5.924;2023-04-23T07:35:24;100067.34;;;15.93;62.09
69402;BME280;56589;51.992;5.924;2023-04-23T07:37:50;100054.41;;;15.90;62.22
69402;BME280;56589;51.992;5.924;2023-04-23T07:40:19;100058.78;;;15.81;62.00
69402;BME280;56589;51.992;5.924;2023-04-23T07:42:45;100062.50;;;15.71;62.49
69402;BME280;56589;51.992;5.924;2023-04-23T07:45:11;100054.13;;;15.65;62.81
69402;BME280;56589;51.992;5.924;2023-04-23T07:47:37;100065.16;;;15.61;63.08
69402;BME280;56589;51.992;5.924;2023-04-23T07:50:03;100064.88;;;15.64;63.13
69402;BME280;56589;51.992;5.924;2023-04-23T07:52:30;100065.38;;;15.67;63.33
69402;BME280;56589;51.992;5.924;2023-04-23T07:54:55;100060.94;;;15.68;63.76
69402;BME280;56589;51.992;5.924;2023-04-23T07:57:24;100058.16;;;15.70;62.96
69402;BME280;56589;51.992;5.924;2023-04-23T07:59:49;100053.81;;;15.69;63.36
69402;BME280;56589;51.992;5.924;2023-04-23T08:02:16;100056.78;;;15.65;63.21
69402;BME280;56589;51.992;5.924;2023-04-23T08:04:42;100058.28;;;15.68;63.60
69402;BME280;56589;51.992;5.924;2023-04-23T08:07:07;100057.88;;;15.73;63.46
69402;BME280;56589;51.992;5.924;2023-04-23T08:09:33;100044.66;;;15.73;63.29
69402;BME280;56589;51.992;5.924;2023-04-23T08:11:59;100047.44;;;15.71;63.53
69402;BME280;56589;51.992;5.924;2023-04-23T08:14:27;100060.38;;;15.74;63.33
69402;BME280;56589;51.992;5.924;2023-04-23T08:16:53;100055.31;;;15.81;63.33
69402;BME280;56589;51.992;5.924;2023-04-23T08:19:19;100046.91;;;15.85;63.56
69402;BME280;56589;51.992;5.924;2023-04-23T08:21:45;100043.22;;;15.96;63.83
69402;BME280;56589;51.992;5.924;2023-04-23T08:24:11;100050.84;;;16.17;63.13
69402;BME280;56589;51.992;5.924;2023-04-23T08:26:37;100038.25;;;16.37;62.76
69402;BME280;56589;51.992;5.924;2023-04-23T08:29:02;100042.69;;;16.54;62.62
69402;BME280;56589;51.992;5.924;2023-04-23T08:31:31;100047.28;;;16.70;61.86
69402;BME280;56589;51.992;5.924;2023-04-23T08:33:57;100044.72;;;16.78;61.60
69402;BME280;56589;51.992;5.924;2023-04-23T08:36:23;100046.44;;;16.87;61.95
69402;BME280;56589;51.992;5.924;2023-04-23T08:38:49;100053.97;;;17.00;61.45
69402;BME280;56589;51.992;5.924;2023-04-23T08:41:17;100053.53;;;17.13;61.09
69402;BME280;56589;51.992;5.924;2023-04-23T08:43:51;100049.81;;;17.32;60.88
69402;BME280;56589;51.992;5.924;2023-04-23T08:46:32;100050.84;;;17.47;60.24
69402;BME280;56589;51.992;5.924;2023-04-23T08:49:01;100042.41;;;17.60;60.65
69402;BME280;56589;51.992;5.924;2023-04-23T08:51:29;100044.59;;;17.64;59.52
69402;BME280;56589;51.992;5.924;2023-04-23T08:54:03;100046.59;;;17.62;58.79
69402;BME280;56589;51.992;5.924;2023-04-23T08:56:30;100042.59;;;17.58;59.42
69402;BME280;56589;51.992;5.924;2023-04-23T08:58:57;100035.09;;;17.53;59.07
69402;BME280;56589;51.992;5.924;2023-04-23T09:01:23;100039.25;;;17.48;59.06
69402;BME280;56589;51.992;5.924;2023-04-23T09:03:52;100036.25;;;17.43;58.30
69402;BME280;56589;51.992;5.924;2023-04-23T09:06:19;100029.56;;;17.31;58.57
69402;BME280;56589;51.992;5.924;2023-04-23T09:08:45;100030.69;;;17.20;58.21
69402;BME280;56589;51.992;5.924;2023-04-23T09:11:12;100031.44;;;17.04;58.44
69402;BME280;56589;51.992;5.924;2023-04-23T09:13:39;100032.59;;;17.02;58.91
69402;BME280;56589;51.992;5.924;2023-04-23T09:16:05;100032.13;;;17.06;59.01
69402;BME280;56589;51.992;5.924;2023-04-23T09:18:31;100022.00;;;17.10;58.41
69402;BME280;56589;51.992;5.924;2023-04-23T09:21:00;100029.00;;;17.11;58.69
69402;BME280;56589;51.992;5.924;2023-04-23T09:23:26;100027.19;;;17.11;57.56
69402;BME280;56589;51.992;5.924;2023-04-23T09:25:51;100026.81;;;17.06;57.70
69402;BME280;56589;51.992;5.924;2023-04-23T09:28:17;100028.13;;;17.02;58.29
69402;BME280;56589;51.992;5.924;2023-04-23T09:30:44;100025.81;;;17.07;58.11
69402;BME280;56589;51.992;5.924;2023-04-23T09:33:13;100019.59;;;17.24;58.50
69402;BME280;56589;51.992;5.924;2023-04-23T09:35:41;100014.28;;;17.67;59.01
69402;BME280;56589;51.992;5.924;2023-04-23T09:38:11;100019.66;;;18.16;57.91
69402;BME280;56589;51.992;5.924;2023-04-23T09:40:36;100003.66;;;18.48;55.97
69402;BME280;56589;51.992;5.924;2023-04-23T09:43:04;100008.75;;;18.82;55.81
69402;BME280;56589;51.992;5.924;2023-04-23T09:45:30;100004.50;;;19.12;54.98
69402;BME280;56589;51.992;5.924;2023-04-23T09:47:57;100011.38;;;19.46;54.46
69402;BME280;56589;51.992;5.924;2023-04-23T09:50:32;100002.25;;;19.72;52.91
69402;BME280;56589;51.992;5.924;2023-04-23T09:52:58;100005.63;;;19.88;52.91
69402;BME280;56589;51.992;5.924;2023-04-23T09:55:33;100014.50;;;20.04;50.88
69402;BME280;56589;51.992;5.924;2023-04-23T09:58:00;100010.94;;;20.11;51.11
69402;BME280;56589;51.992;5.924;2023-04-23T10:00:31;100000.97;;;20.28;51.05
69402;BME280;56589;51.992;5.924;2023-04-23T10:02:59;100002.50;;;20.45;49.69
69402;BME280;56589;51.992;5.924;2023-04-23T10:05:25;99995.06;;;20.56;49.77
69402;BME280;56589;51.992;5.924;2023-04-23T10:07:51;100003.81;;;20.64;49.36
69402;BME280;56589;51.992;5.924;2023-04-23T10:10:18;100003.91;;;20.71;48.33
69402;BME280;56589;51.992;5.924;2023-04-23T10:12:48;100004.19;;;20.61;48.30
69402;BME280;56589;51.992;5.924;2023-04-23T10:15:16;100007.03;;;20.60;48.84
69402;BME280;56589;51.992;5.924;2023-04-23T10:17:44;99998.38;;;20.58;48.05
69402;BME280;56589;51.992;5.924;2023-04-23T10:20:11;100001.13;;;20.50;47.88
69402;BME280;56589;51.992;5.924;2023-04-23T10:22:38;99995.22;;;20.39;47.09
69402;BME280;56589;51.992;5.924;2023-04-23T10:25:10;99990.72;;;20.17;46.85
69402;BME280;56589;51.992;5.924;2023-04-23T10:27:38;99997.84;;;20.02;47.31
69402;BME280;56589;51.992;5.924;2023-04-23T10:30:10;99990.91;;;19.92;46.94
69402;BME280;56589;51.992;5.924;2023-04-23T10:32:37;99991.63;;;19.86;47.87
69402;BME280;56589;51.992;5.924;2023-04-23T10:35:04;99989.53;;;19.82;46.86
69402;BME280;56589;51.992;5.924;2023-04-23T10:37:30;99992.41;;;19.72;46.41
69402;BME280;56589;51.992;5.924;2023-04-23T10:40:07;99986.47;;;19.62;45.61
69402;BME280;56589;51.992;5.924;2023-04-23T10:42:36;99985.78;;;19.45;46.48
69402;BME280;56589;51.992;5.924;2023-04-23T10:45:11;99982.63;;;19.33;46.68
69402;BME280;56589;51.992;5.924;2023-04-23T10:47:38;99979.34;;;19.23;47.25
69402;BME280;56589;51.992;5.924;2023-04-23T10:50:17;99974.84;;;19.24;46.08
69402;BME280;56589;51.992;5.924;2023-04-23T10:52:44;99970.22;;;19.18;46.87
69402;BME280;56589;51.992;5.924;2023-04-23T10:55:18;99970.03;;;19.19;46.47
69402;BME280;56589;51.992;5.924;2023-04-23T10:58:01;99961.09;;;19.20;46.68
69402;BME280;56589;51.992;5.924;2023-04-23T11:00:44;99967.75;;;19.16;46.45
69402;BME280;56589;51.992;5.924;2023-04-23T11:03:25;99959.97;;;19.06;46.61
69402;BME280;56589;51.992;5.924;2023-04-23T11:05:54;99953.22;;;18.96;47.40
69402;BME280;56589;51.992;5.924;2023-04-23T11:08:21;99962.66;;;18.98;48.03
69402;BME280;56589;51.992;5.924;2023-04-23T11:10:57;99945.84;;;19.06;46.37
69402;BME280;56589;51.992;5.924;2023-04-23T11:13:26;99944.50;;;19.10;46.85
69402;BME280;56589;51.992;5.924;2023-04-23T11:16:19;99955.09;;;19.18;45.89
69402;BME280;56589;51.992;5.924;2023-04-23T11:19:00;99937.47;;;19.17;45.76
69402;BME280;56589;51.992;5.924;2023-04-23T11:24:23;99921.44;;;19.25;46.89
69402;BME280;56589;51.992;5.924;2023-04-23T11:26:50;99919.69;;;19.40;45.85
69402;BME280;56589;51.992;5.924;2023-04-23T11:29:17;99919.22;;;19.45;45.28
69402;BME280;56589;51.992;5.924;2023-04-23T11:31:48;99919.69;;;19.40;45.76
69402;BME280;56589;51.992;5.924;2023-04-23T11:34:15;99924.00;;;19.42;45.47
69402;BME280;56589;51.992;5.924;2023-04-23T11:36:42;99915.06;;;19.34;44.91
69402;BME280;56589;51.992;5.924;2023-04-23T11:39:08;99920.50;;;19.18;44.86
69402;BME280;56589;51.992;5.924;2023-04-23T11:41:34;99913.59;;;19.01;45.50
69402;BME280;56589;51.992;5.924;2023-04-23T11:44:00;99917.31;;;18.92;45.59
69402;BME280;56589;51.992;5.924;2023-04-23T11:46:25;99912.16;;;18.90;45.87
69402;BME280;56589;51.992;5.924;2023-04-23T11:48:54;99906.31;;;18.95;46.20
69402;BME280;56589;51.992;5.924;2023-04-23T11:51:24;99900.91;;;19.11;45.99
69402;BME280;56589;51.992;5.924;2023-04-23T11:53:50;99891.22;;;19.18;45.52
69402;BME280;56589;51.992;5.924;2023-04-23T11:56:16;99895.00;;;19.24;46.31
69402;BME280;56589;51.992;5.924;2023-04-23T11:58:43;99882.94;;;19.36;45.79
69402;BME280;56589;51.992;5.924;2023-04-23T12:01:09;99881.22;;;19.43;45.33
69402;BME280;56589;51.992;5.924;2023-04-23T12:03:35;99879.28;;;19.45;45.51
69402;BME280;56589;51.992;5.924;2023-04-23T12:06:04;99871.28;;;19.45;45.25
69402;BME280;56589;51.992;5.924;2023-04-23T12:08:31;99872.97;;;19.38;45.66
69402;BME280;56589;51.992;5.924;2023-04-23T12:11:00;99868.19;;;19.33;45.33
69402;BME280;56589;51.992;5.924;2023-04-23T12:13:28;99863.88;;;19.32;45.33
69402;BME280;56589;51.992;5.924;2023-04-23T12:15:57;99861.84;;;19.34;45.30
69402;BME280;56589;51.992;5.924;2023-04-23T12:18:26;99851.19;;;19.34;45.40
69402;BME280;56589;51.992;5.924;2023-04-23T12:20:52;99849.03;;;19.38;45.57
69402;BME280;56589;51.992;5.924;2023-04-23T12:23:24;99848.88;;;19.31;45.47
69402;BME280;56589;51.992;5.924;2023-04-23T12:25:52;99843.91;;;19.28;45.84
69402;BME280;56589;51.992;5.924;2023-04-23T12:28:22;99835.63;;;19.23;45.29
69402;BME280;56589;51.992;5.924;2023-04-23T12:30:49;99844.97;;;19.19;45.68
69402;BME280;56589;51.992;5.924;2023-04-23T12:33:15;99836.00;;;19.20;46.17
69402;BME280;56589;51.992;5.924;2023-04-23T12:35:43;99830.25;;;19.31;46.19
69402;BME280;56589;51.992;5.924;2023-04-23T12:38:23;99836.53;;;19.38;46.09
69402;BME280;56589;51.992;5.924;2023-04-23T12:40:50;99841.84;;;19.38;46.60
69402;BME280;56589;51.992;5.924;2023-04-23T12:43:17;99830.38;;;19.38;46.32
69402;BME280;56589;51.992;5.924;2023-04-23T12:45:42;99825.50;;;19.42;45.90
69402;BME280;56589;51.992;5.924;2023-04-23T12:48:08;99813.16;;;19.49;45.70
69402;BME280;56589;51.992;5.924;2023-04-23T12:50:34;99809.06;;;19.61;45.49
69402;BME280;56589;51.992;5.924;2023-04-23T12:53:00;99812.31;;;19.71;45.27
69402;BME280;56589;51.992;5.924;2023-04-23T12:55:29;99811.50;;;19.85;44.73
69402;BME280;56589;51.992;5.924;2023-04-23T12:57:54;99804.69;;;19.98;44.78
69402;BME280;56589;51.992;5.924;2023-04-23T13:00:21;99800.84;;;20.15;44.99